createdAt,value
2022-11-16T00:03:57.683Z,13.30
2022-11-16T00:13:59.758Z,11.87
2022-11-16T00:24:05.755Z,13.73
2022-11-16T00:34:08.716Z,11.53
2022-11-16T00:44:12.382Z,12.70
2022-11-16T00:54:14.898Z,11.87
2022-11-16T01:04:17.026Z,8.63
2022-11-16T01:14:21.926Z,12.33
2022-11-16T01:24:27.046Z,8.30
2022-11-16T01:34:33.883Z,11.33
2022-11-16T01:44:41.674Z,10.63
2022-11-16T01:54:52.493Z,7.73
2022-11-16T02:04:59.115Z,9.30
2022-11-16T02:15:28.280Z,9.00
2022-11-16T02:26:19.388Z,10.40
2022-11-16T02:36:23.317Z,6.67
2022-11-16T02:46:29.244Z,11.50
2022-11-16T02:56:42.613Z,8.63
2022-11-16T03:06:47.228Z,10.80
2022-11-16T03:16:52.942Z,11.47
2022-11-16T03:27:16.897Z,9.03
2022-11-16T03:37:24.664Z,10.60
2022-11-16T03:47:28.228Z,10.23
2022-11-16T03:57:32.800Z,11.43
2022-11-16T04:07:54.075Z,8.43
2022-11-16T04:18:14.833Z,12.57
2022-11-16T04:28:24.379Z,12.07
2022-11-16T04:38:32.271Z,12.87
2022-11-16T04:48:34.813Z,10.37
2022-11-16T04:58:39.792Z,13.47
2022-11-16T05:08:45.850Z,9.67
2022-11-16T05:19:10.303Z,14.43
2022-11-16T05:29:16.660Z,13.67
2022-11-16T05:39:21.902Z,13.17
2022-11-16T05:49:28.704Z,14.20
2022-11-16T05:59:30.825Z,15.60
2022-11-16T06:09:41.294Z,10.70
2022-11-16T06:19:53.426Z,8.83
2022-11-16T06:29:56.451Z,18.42
2022-11-16T06:40:03.900Z,11.73
2022-11-16T06:50:21.477Z,10.80
2022-11-16T07:00:25.925Z,9.93
2022-11-16T07:10:31.612Z,11.40
2022-11-16T07:20:40.188Z,10.77
2022-11-16T07:30:48.244Z,9.47
2022-11-16T07:41:00.712Z,10.57
2022-11-16T07:51:09.483Z,7.90
2022-11-16T08:01:20.365Z,12.60
2022-11-16T08:11:30.948Z,9.10
2022-11-16T08:21:35.313Z,8.27
2022-11-16T08:31:38.392Z,7.70
2022-11-16T08:41:48.313Z,11.70
2022-11-16T08:51:52.567Z,9.30
2022-11-16T09:01:55.928Z,7.23
2022-11-16T09:11:58.061Z,10.47
2022-11-16T09:22:00.552Z,7.10
2022-11-16T09:32:05.065Z,8.57
2022-11-16T09:42:17.275Z,8.33
2022-11-16T09:52:39.334Z,4.53
2022-11-16T10:02:44.673Z,4.57
2022-11-16T10:12:57.335Z,2.73
2022-11-16T10:23:16.232Z,3.73
2022-11-16T10:33:20.139Z,4.47
2022-11-16T10:43:27.566Z,5.47
2022-11-16T10:53:35.117Z,4.60
2022-11-16T11:03:42.357Z,3.60
2022-11-16T11:13:45.274Z,3.27
2022-11-16T11:23:52.538Z,4.97
2022-11-16T11:34:21.695Z,2.87
2022-11-16T11:44:35.699Z,2.80
2022-11-16T11:54:47.040Z,2.03
2022-11-16T12:04:59.327Z,7.57
2022-11-16T12:15:26.063Z,4.73
2022-11-16T12:25:28.032Z,3.33
2022-11-16T12:36:02.494Z,1.83
2022-11-16T12:46:41.906Z,1.87
2022-11-16T12:56:49.169Z,1.80
2022-11-16T13:07:10.384Z,1.80
2022-11-16T13:17:19.824Z,2.67
2022-11-16T13:27:39.547Z,1.87
2022-11-16T13:37:54.983Z,3.10
2022-11-16T13:48:00.800Z,3.03
2022-11-16T13:58:04.800Z,2.60
2022-11-16T14:08:24.275Z,3.60
2022-11-16T14:18:37.413Z,2.17
2022-11-16T14:29:17.175Z,3.30
2022-11-16T14:39:51.681Z,4.07
2022-11-16T14:49:56.996Z,6.40
2022-11-16T15:00:09.866Z,5.23
2022-11-16T15:10:20.221Z,3.37
2022-11-16T15:20:26.980Z,2.63
2022-11-16T15:30:34.440Z,3.33
2022-11-16T15:40:38.737Z,4.20
2022-11-16T15:50:40.886Z,3.00
2022-11-16T16:00:43.168Z,4.40
2022-11-16T16:10:47.435Z,4.43
2022-11-16T16:20:54.161Z,3.13
2022-11-16T16:30:58.548Z,3.67
2022-11-16T16:41:07.995Z,4.13
2022-11-16T16:51:11.866Z,3.23
2022-11-16T17:01:19.307Z,2.30
2022-11-16T17:11:23.830Z,3.70
2022-11-16T17:21:30.662Z,6.30
2022-11-16T17:31:37.355Z,4.17
2022-11-16T17:41:41.477Z,3.23
2022-11-16T17:51:45.706Z,3.03
2022-11-16T18:01:48.748Z,2.90
2022-11-16T18:11:53.279Z,2.10
2022-11-16T18:21:55.298Z,3.23
2022-11-16T18:31:57.573Z,3.37
2022-11-16T18:41:59.652Z,2.90
2022-11-16T18:52:06.282Z,2.90
2022-11-16T19:02:16.473Z,5.70
2022-11-16T19:12:20.869Z,6.37
2022-11-16T19:22:22.816Z,2.63
2022-11-16T19:32:27.132Z,4.07
2022-11-16T19:42:31.547Z,6.67
2022-11-16T19:52:33.517Z,8.40
2022-11-16T20:02:38.920Z,5.67
2022-11-16T20:12:45.513Z,5.37
2022-11-16T20:22:50.975Z,7.20
2022-11-16T20:33:00.531Z,11.07
2022-11-16T20:43:02.766Z,5.30
2022-11-16T20:53:07.200Z,6.50
2022-11-16T21:03:11.765Z,8.13
2022-11-16T21:13:34.882Z,9.07
2022-11-16T21:23:37.514Z,10.47
2022-11-16T21:33:39.739Z,10.68
2022-11-16T21:43:47.177Z,6.53
2022-11-16T21:53:51.577Z,9.87
2022-11-16T22:04:14.794Z,8.70
2022-11-16T22:14:16.833Z,7.10
2022-11-16T22:24:23.789Z,6.57
2022-11-16T22:34:30.653Z,3.50
2022-11-16T22:44:32.634Z,4.53
2022-11-16T22:54:38.029Z,3.30
2022-11-16T23:04:40.017Z,6.17
2022-11-16T23:15:00.552Z,3.97
2022-11-16T23:25:21.671Z,3.30
2022-11-16T23:35:23.728Z,2.83
2022-11-16T23:45:25.703Z,3.30
2022-11-16T23:55:31.437Z,1.73
